Time;durP1;ratioP1;P1;durP2;ratioP2;P2;SDS_P1;SDS_P2;PMS_P1;PMS_P2;Temp;Humidity;BMP_temperature;BMP_pressure;BME280_temperature;BME280_humidity;BME280_pressure;Samples;Min_cycle;Max_cycle;Signal;HPM_P1;HPM_P2
2022/10/22 00:02:26;;;;;;;19.83;11.43;;;;;;;;;;5008373;28;20352;-67
2022/10/22 00:04:52;;;;;;;18.67;10.68;;;;;;;;;;4990500;28;20442;-66
2022/10/22 00:07:18;;;;;;;22.25;10.77;;;;;;;;;;5008194;28;20321;-66
2022/10/22 00:09:44;;;;;;;22.52;11.90;;;;;;;;;;5008148;28;20393;-66
2022/10/22 00:12:10;;;;;;;20.52;10.88;;;;;;;;;;5008146;28;20435;-66
2022/10/22 00:14:36;;;;;;;16.92;9.88;;;;;;;;;;5008142;28;20390;-66
2022/10/22 00:17:01;;;;;;;18.13;10.25;;;;;;;;;;4989445;28;20446;-67
2022/10/22 00:19:26;;;;;;;22.23;10.05;;;;;;;;;;4989967;28;20375;-67
2022/10/22 00:21:52;;;;;;;19.38;10.15;;;;;;;;;;5008271;28;20508;-66
2022/10/22 00:24:17;;;;;;;18.02;9.82;;;;;;;;;;4989829;28;20314;-66
2022/10/22 00:26:43;;;;;;;22.45;10.32;;;;;;;;;;5007832;28;20427;-67
2022/10/22 00:29:08;;;;;;;16.45;8.93;;;;;;;;;;5003361;28;20410;-66
2022/10/22 00:31:33;;;;;;;16.70;8.98;;;;;;;;;;4988317;28;20033;-66
2022/10/22 00:34:00;;;;;;;22.15;8.60;;;;;;;;;;4988712;28;20479;-66
2022/10/22 00:36:25;;;;;;;16.88;8.82;;;;;;;;;;4990217;28;20448;-66
2022/10/22 00:38:51;;;;;;;17.88;9.50;;;;;;;;;;4969978;28;20494;-66
2022/10/22 00:41:16;;;;;;;21.90;9.88;;;;;;;;;;4989240;28;20459;-66
2022/10/22 00:43:55;;;;;;;17.40;9.57;;;;;;;;;;4970401;28;20028;-67
2022/10/22 00:46:20;;;;;;;17.05;9.20;;;;;;;;;;4969898;28;20130;-67
2022/10/22 00:48:46;;;;;;;17.15;8.75;;;;;;;;;;4987692;28;20493;-67
2022/10/22 00:51:11;;;;;;;17.77;9.48;;;;;;;;;;4987682;28;20417;-67
2022/10/22 00:53:41;;;;;;;15.63;9.07;;;;;;;;;;4987571;28;20025;-66
2022/10/22 00:56:06;;;;;;;22.30;10.13;;;;;;;;;;4969670;28;20390;-66
2022/10/22 00:58:36;;;;;;;23.67;10.98;;;;;;;;;;4969637;28;20344;-67
2022/10/22 01:01:02;;;;;;;17.15;9.95;;;;;;;;;;4966231;28;20460;-66
2022/10/22 01:03:27;;;;;;;20.08;9.50;;;;;;;;;;4977850;28;20421;-66
2022/10/22 01:05:56;;;;;;;16.13;8.65;;;;;;;;;;4968516;28;20381;-66
2022/10/22 01:08:34;;;;;;;20.03;10.07;;;;;;;;;;4950045;28;20425;-66
2022/10/22 01:11:05;;;;;;;20.80;10.75;;;;;;;;;;4949974;28;20326;-67
2022/10/22 01:14:07;;;;;;;17.27;9.40;;;;;;;;;;4949832;28;20344;-66
2022/10/22 01:16:47;;;;;;;17.60;9.55;;;;;;;;;;4950007;28;20349;-66
2022/10/22 01:19:13;;;;;;;25.38;10.20;;;;;;;;;;4967649;28;20367;-66
2022/10/22 01:21:43;;;;;;;19.08;9.13;;;;;;;;;;4969115;28;20021;-67
2022/10/22 01:24:20;;;;;;;16.33;9.02;;;;;;;;;;4949808;28;20037;-67
2022/10/22 01:27:30;;;;;;;18.70;8.90;;;;;;;;;;4968539;28;20051;-67
2022/10/22 01:29:57;;;;;;;16.33;9.00;;;;;;;;;;4948332;28;20072;-66
2022/10/22 01:32:24;;;;;;;17.70;9.25;;;;;;;;;;4953733;28;20096;-67
2022/10/22 01:34:54;;;;;;;20.48;10.50;;;;;;;;;;4953750;28;20387;-67
2022/10/22 01:37:21;;;;;;;17.83;9.13;;;;;;;;;;4953574;28;20359;-66
2022/10/22 01:39:47;;;;;;;20.67;10.10;;;;;;;;;;4971685;28;20026;-67
2022/10/22 01:42:13;;;;;;;19.30;9.63;;;;;;;;;;4953862;28;20447;-66
2022/10/22 01:44:38;;;;;;;15.35;8.40;;;;;;;;;;4971844;28;20511;-66
2022/10/22 01:47:14;;;;;;;20.77;8.90;;;;;;;;;;4973444;28;20450;-66
2022/10/22 01:50:01;;;;;;;20.52;8.77;;;;;;;;;;4991354;28;20533;-66
2022/10/22 01:52:29;;;;;;;13.73;7.38;;;;;;;;;;4989310;28;20444;-66
2022/10/22 01:55:41;;;;;;;13.88;7.65;;;;;;;;;;4973018;28;20436;-67
2022/10/22 01:58:14;;;;;;;12.23;7.20;;;;;;;;;;4960170;28;20044;-66
2022/10/22 02:00:45;;;;;;;18.17;7.45;;;;;;;;;;4991056;28;20470;-68
2022/10/22 02:03:17;;;;;;;15.52;8.93;;;;;;;;;;4989838;28;20321;-67
2022/10/22 02:05:45;;;;;;;14.27;8.40;;;;;;;;;;4990804;28;20432;-66
2022/10/22 02:08:28;;;;;;;17.70;8.60;;;;;;;;;;4989696;28;20097;-66
2022/10/22 02:10:54;;;;;;;18.48;9.98;;;;;;;;;;4989143;28;20440;-67
2022/10/22 02:13:35;;;;;;;17.95;9.38;;;;;;;;;;4990003;28;20439;-66
2022/10/22 02:16:02;;;;;;;21.48;9.48;;;;;;;;;;4972877;28;20025;-67
2022/10/22 02:18:30;;;;;;;15.52;7.78;;;;;;;;;;4989020;28;20478;-67
2022/10/22 02:20:55;;;;;;;12.70;7.45;;;;;;;;;;4989400;28;20463;-66
2022/10/22 02:23:21;;;;;;;15.98;7.78;;;;;;;;;;4990750;28;20432;-67
2022/10/22 02:25:49;;;;;;;14.93;7.28;;;;;;;;;;4990475;28;20557;-66
2022/10/22 02:28:22;;;;;;;15.32;7.30;;;;;;;;;;4988920;28;20029;-67
2022/10/22 02:30:53;;;;;;;19.65;7.40;;;;;;;;;;4989334;28;20075;-67
2022/10/22 02:33:22;;;;;;;15.95;7.18;;;;;;;;;;4992310;28;20438;-67
2022/10/22 02:35:48;;;;;;;14.65;7.93;;;;;;;;;;4991872;28;20462;-66
2022/10/22 02:38:13;;;;;;;12.90;7.95;;;;;;;;;;4991973;28;20414;-67
2022/10/22 02:40:39;;;;;;;14.23;7.93;;;;;;;;;;4991959;28;20064;-67
2022/10/22 02:43:05;;;;;;;12.95;7.32;;;;;;;;;;4991838;28;20351;-67
2022/10/22 02:45:30;;;;;;;12.38;7.03;;;;;;;;;;5009766;28;20451;-67
2022/10/22 02:47:56;;;;;;;15.40;6.80;;;;;;;;;;4992560;28;20415;-66
2022/10/22 02:50:21;;;;;;;15.73;7.03;;;;;;;;;;5010249;28;20339;-67
2022/10/22 02:52:46;;;;;;;12.95;6.97;;;;;;;;;;5009713;28;20101;-66
2022/10/22 02:55:12;;;;;;;13.93;7.25;;;;;;;;;;5010284;28;20343;-67
2022/10/22 02:57:37;;;;;;;18.40;6.95;;;;;;;;;;5011306;28;20385;-66
2022/10/22 03:00:04;;;;;;;11.45;6.22;;;;;;;;;;5009599;28;20073;-66
2022/10/22 03:02:30;;;;;;;13.45;6.43;;;;;;;;;;4992494;28;20052;-67
2022/10/22 03:04:55;;;;;;;11.00;6.50;;;;;;;;;;5009528;28;20052;-66
2022/10/22 03:07:20;;;;;;;13.88;6.43;;;;;;;;;;5009446;28;20342;-67
2022/10/22 03:09:46;;;;;;;15.00;7.15;;;;;;;;;;5009185;28;20406;-67
2022/10/22 03:12:11;;;;;;;11.98;6.05;;;;;;;;;;5009438;28;20390;-67
2022/10/22 03:14:36;;;;;;;10.68;6.65;;;;;;;;;;5010150;28;20154;-67
2022/10/22 03:17:02;;;;;;;12.50;6.75;;;;;;;;;;5010414;28;20025;-67
2022/10/22 03:19:27;;;;;;;13.30;6.72;;;;;;;;;;5011255;28;20424;-66
2022/10/22 03:21:56;;;;;;;13.95;7.28;;;;;;;;;;5010306;28;20466;-66
2022/10/22 03:24:25;;;;;;;9.93;6.20;;;;;;;;;;4991339;28;20459;-66
2022/10/22 03:26:51;;;;;;;;;;;;;;;;;;5009347;28;20389;-67
2022/10/22 03:29:16;;;;;;;9.90;5.82;;;;;;;;;;4986138;28;20322;-67
2022/10/22 03:31:42;;;;;;;13.80;7.28;;;;;;;;;;4989384;28;20336;-66
2022/10/22 03:34:07;;;;;;;16.73;7.57;;;;;;;;;;4971639;28;20446;-66
2022/10/22 03:36:33;;;;;;;15.95;6.25;;;;;;;;;;4989151;28;20393;-66
2022/10/22 03:38:59;;;;;;;13.68;6.55;;;;;;;;;;4987404;28;20340;-67
2022/10/22 03:41:24;;;;;;;16.58;7.70;;;;;;;;;;4970842;28;20378;-67
2022/10/22 03:43:52;;;;;;;11.15;5.82;;;;;;;;;;4988898;28;20047;-66
2022/10/22 03:46:17;;;;;;;11.77;6.30;;;;;;;;;;4988875;28;20503;-67
2022/10/22 03:48:43;;;;;;;19.10;6.82;;;;;;;;;;4988866;28;20290;-66
2022/10/22 03:51:09;;;;;;;13.13;6.40;;;;;;;;;;4987898;28;20024;-66
2022/10/22 03:53:34;;;;;;;11.13;5.93;;;;;;;;;;4991193;28;20328;-67
2022/10/22 03:56:00;;;;;;;11.88;6.93;;;;;;;;;;4970839;28;20455;-66
2022/10/22 03:58:25;;;;;;;15.20;6.82;;;;;;;;;;4988613;28;20356;-67
2022/10/22 04:00:50;;;;;;;13.90;6.30;;;;;;;;;;4989675;28;20360;-66
2022/10/22 04:03:16;;;;;;;12.18;6.78;;;;;;;;;;4988584;28;20554;-67
2022/10/22 04:05:41;;;;;;;12.13;6.10;;;;;;;;;;4988549;28;20448;-66
2022/10/22 04:08:06;;;;;;;12.88;6.38;;;;;;;;;;4988525;28;20408;-67
2022/10/22 04:10:32;;;;;;;12.43;7.00;;;;;;;;;;4970534;28;20359;-67
2022/10/22 04:12:57;;;;;;;12.02;6.20;;;;;;;;;;4988310;28;20080;-66
2022/10/22 04:15:25;;;;;;;13.35;6.15;;;;;;;;;;4988344;28;20364;-67
2022/10/22 04:17:50;;;;;;;10.80;6.68;;;;;;;;;;4988402;28;20469;-66
2022/10/22 04:20:16;;;;;;;15.35;6.25;;;;;;;;;;4954099;28;20473;-66
2022/10/22 04:22:41;;;;;;;10.13;6.03;;;;;;;;;;4989169;28;20467;-66
2022/10/22 04:25:07;;;;;;;11.60;5.70;;;;;;;;;;4988220;28;20029;-67
2022/10/22 04:27:33;;;;;;;11.88;5.68;;;;;;;;;;4987986;28;20386;-67
2022/10/22 04:29:59;;;;;;;15.48;6.57;;;;;;;;;;4987692;28;20406;-67
2022/10/22 04:32:25;;;;;;;13.48;7.05;;;;;;;;;;4988679;28;20379;-67
2022/10/22 04:34:50;;;;;;;17.30;7.90;;;;;;;;;;4970192;28;20428;-67
2022/10/22 04:37:16;;;;;;;9.23;5.95;;;;;;;;;;4970092;28;20485;-66
2022/10/22 04:39:41;;;;;;;10.95;6.05;;;;;;;;;;4989194;28;20430;-66
2022/10/22 04:42:06;;;;;;;7.90;4.72;;;;;;;;;;4987918;28;20355;-66
2022/10/22 04:44:33;;;;;;;9.07;5.35;;;;;;;;;;4987828;28;20449;-67
2022/10/22 04:46:58;;;;;;;10.80;5.03;;;;;;;;;;4989930;28;20466;-67
2022/10/22 04:49:24;;;;;;;7.97;5.47;;;;;;;;;;4987606;28;20432;-66
2022/10/22 04:51:49;;;;;;;11.20;5.95;;;;;;;;;;4988795;28;20336;-66
2022/10/22 04:54:14;;;;;;;10.48;5.38;;;;;;;;;;4987661;28;20348;-67
2022/10/22 04:56:40;;;;;;;12.15;5.45;;;;;;;;;;4969617;28;20431;-67
2022/10/22 04:59:07;;;;;;;8.77;5.10;;;;;;;;;;4987303;28;20052;-66
2022/10/22 05:01:36;;;;;;;11.45;5.72;;;;;;;;;;4987912;28;20324;-67
2022/10/22 05:04:03;;;;;;;;;;;;;;;;;;4987949;28;20387;-67
2022/10/22 05:06:29;;;;;;;9.82;5.25;;;;;;;;;;4969803;28;20260;-67
2022/10/22 05:08:57;;;;;;;9.82;6.03;;;;;;;;;;4969554;28;20462;-66
2022/10/22 05:11:28;;;;;;;7.97;4.97;;;;;;;;;;4969551;28;20441;-67
2022/10/22 05:13:57;;;;;;;11.07;5.90;;;;;;;;;;4987387;28;20529;-67
2022/10/22 05:16:23;;;;;;;10.80;5.97;;;;;;;;;;4969495;28;20451;-67
2022/10/22 05:18:49;;;;;;;9.95;5.97;;;;;;;;;;4985980;28;20387;-67
2022/10/22 05:21:17;;;;;;;10.85;5.50;;;;;;;;;;4988284;28;20509;-67
2022/10/22 05:23:44;;;;;;;14.57;5.65;;;;;;;;;;4987509;28;20029;-67
2022/10/22 05:26:11;;;;;;;12.30;6.57;;;;;;;;;;4970529;28;20393;-67
2022/10/22 05:28:36;;;;;;;10.82;5.63;;;;;;;;;;4985597;28;20052;-67
2022/10/22 05:31:03;;;;;;;8.00;5.45;;;;;;;;;;4987058;28;20441;-67
2022/10/22 05:33:29;;;;;;;9.85;5.50;;;;;;;;;;4985854;28;20570;-67
2022/10/22 05:35:55;;;;;;;9.88;6.32;;;;;;;;;;4988208;28;20418;-67
2022/10/22 05:38:20;;;;;;;10.63;5.75;;;;;;;;;;4969408;28;20025;-67
2022/10/22 05:40:46;;;;;;;8.82;5.47;;;;;;;;;;4987159;28;20462;-67
2022/10/22 05:43:11;;;;;;;10.88;5.95;;;;;;;;;;4987283;28;20517;-67
2022/10/22 05:45:38;;;;;;;9.27;5.38;;;;;;;;;;4969107;28;20108;-67
2022/10/22 05:48:03;;;;;;;10.25;5.28;;;;;;;;;;4969404;28;20465;-67
2022/10/22 05:50:29;;;;;;;9.20;5.10;;;;;;;;;;4989017;28;20507;-66
2022/10/22 05:52:54;;;;;;;10.00;4.85;;;;;;;;;;4987008;28;20325;-67
2022/10/22 05:55:20;;;;;;;7.78;5.18;;;;;;;;;;4988003;28;20490;-67
2022/10/22 05:57:45;;;;;;;11.93;6.18;;;;;;;;;;4986952;28;20495;-66
2022/10/22 06:00:11;;;;;;;8.05;5.20;;;;;;;;;;4988670;28;20029;-67
2022/10/22 06:02:36;;;;;;;11.07;5.32;;;;;;;;;;4987296;28;20385;-67
2022/10/22 06:05:02;;;;;;;11.55;5.53;;;;;;;;;;4986778;28;20084;-66
2022/10/22 06:07:27;;;;;;;10.35;5.75;;;;;;;;;;4968619;28;20348;-66
2022/10/22 06:09:53;;;;;;;12.02;6.20;;;;;;;;;;4969143;28;20344;-67
2022/10/22 06:12:18;;;;;;;11.18;5.85;;;;;;;;;;4986917;28;20089;-67
2022/10/22 06:14:44;;;;;;;22.40;8.82;;;;;;;;;;4989194;28;20364;-67
2022/10/22 06:17:11;;;;;;;12.00;6.68;;;;;;;;;;4991073;28;20409;-67
2022/10/22 06:19:36;;;;;;;12.57;5.72;;;;;;;;;;4988946;28;20432;-67
2022/10/22 06:22:03;;;;;;;16.25;7.95;;;;;;;;;;4973565;28;20436;-66
2022/10/22 06:24:29;;;;;;;11.13;7.03;;;;;;;;;;4990402;28;20419;-67
2022/10/22 06:26:54;;;;;;;10.70;6.75;;;;;;;;;;4972914;28;20387;-67
2022/10/22 06:31:02;;;;;;;13.85;7.18;;;;;;;;;;5066866;27;20497;-66
2022/10/22 06:33:28;;;;;;;12.55;7.93;;;;;;;;;;5065145;28;20370;-66
2022/10/22 06:35:53;;;;;;;14.95;7.00;;;;;;;;;;5065364;28;20393;-65
2022/10/22 06:38:19;;;;;;;14.23;7.47;;;;;;;;;;5046561;28;20508;-65
2022/10/22 06:40:44;;;;;;;17.23;7.95;;;;;;;;;;5066906;28;20505;-66
2022/10/22 06:43:11;;;;;;;13.23;7.15;;;;;;;;;;5047104;28;20461;-66
2022/10/22 06:45:37;;;;;;;16.63;7.82;;;;;;;;;;5065090;28;20183;-66
2022/10/22 06:48:02;;;;;;;13.45;7.93;;;;;;;;;;5046434;28;20024;-66
2022/10/22 06:50:27;;;;;;;15.68;7.65;;;;;;;;;;5064793;28;20445;-66
2022/10/22 06:52:53;;;;;;;10.82;6.97;;;;;;;;;;5047125;28;20554;-66
2022/10/22 06:55:18;;;;;;;11.13;6.88;;;;;;;;;;5064785;28;20463;-66
2022/10/22 06:57:43;;;;;;;14.30;8.13;;;;;;;;;;5064884;28;20356;-66
2022/10/22 07:00:09;;;;;;;11.02;6.95;;;;;;;;;;5065729;28;20335;-66
2022/10/22 07:02:35;;;;;;;10.95;6.13;;;;;;;;;;5064587;28;20394;-65
2022/10/22 07:05:00;;;;;;;14.90;6.95;;;;;;;;;;5065662;28;20369;-66
2022/10/22 07:07:25;;;;;;;15.13;7.82;;;;;;;;;;5046418;28;20409;-66
2022/10/22 07:09:51;;;;;;;13.18;7.07;;;;;;;;;;5046835;28;20545;-66
2022/10/22 07:12:16;;;;;;;16.38;7.53;;;;;;;;;;5066807;28;20501;-66
2022/10/22 07:14:42;;;;;;;13.13;7.53;;;;;;;;;;5064557;28;20442;-66
2022/10/22 07:17:07;;;;;;;14.90;7.25;;;;;;;;;;5064432;28;20461;-66
2022/10/22 07:19:33;;;;;;;16.40;7.45;;;;;;;;;;5045922;28;20342;-65
2022/10/22 07:21:58;;;;;;;13.25;7.00;;;;;;;;;;5066533;28;20401;-66
2022/10/22 07:24:24;;;;;;;15.40;7.15;;;;;;;;;;5045826;28;20445;-65
2022/10/22 07:26:49;;;;;;;14.27;8.18;;;;;;;;;;5065025;28;20489;-65
2022/10/22 07:29:14;;;;;;;15.35;8.00;;;;;;;;;;5063532;27;20070;-66
2022/10/22 07:31:40;;;;;;;12.82;7.43;;;;;;;;;;5045602;28;20369;-65
2022/10/22 07:34:06;;;;;;;13.23;7.35;;;;;;;;;;5064110;28;20447;-65
2022/10/22 07:36:31;;;;;;;10.68;6.38;;;;;;;;;;5045716;28;20398;-65
2022/10/22 07:38:58;;;;;;;12.00;6.53;;;;;;;;;;5064726;28;20431;-65
2022/10/22 07:41:23;;;;;;;14.68;7.55;;;;;;;;;;5037943;28;20499;-65
2022/10/22 07:43:49;;;;;;;17.77;8.60;;;;;;;;;;5032115;28;20430;-65
2022/10/22 07:46:14;;;;;;;18.30;8.05;;;;;;;;;;5032958;28;20449;-65
2022/10/22 07:48:40;;;;;;;15.63;7.63;;;;;;;;;;5050418;28;20388;-65
2022/10/22 07:51:05;;;;;;;15.32;7.68;;;;;;;;;;5050193;28;20533;-65
2022/10/22 07:53:31;;;;;;;14.13;7.95;;;;;;;;;;5050336;28;20031;-65
2022/10/22 07:55:57;;;;;;;15.27;8.43;;;;;;;;;;5050283;28;20442;-65
2022/10/22 07:58:22;;;;;;;17.67;7.97;;;;;;;;;;5031896;28;20374;-65
2022/10/22 08:00:49;;;;;;;33.45;12.35;;;;;;;;;;5052013;28;20380;-65
2022/10/22 08:03:15;;;;;;;15.50;7.20;;;;;;;;;;5050256;28;20476;-65
2022/10/22 08:05:42;;;;;;;11.45;6.78;;;;;;;;;;5050134;28;20442;-65
2022/10/22 08:08:09;;;;;;;13.10;6.95;;;;;;;;;;5049848;28;20366;-64
2022/10/22 08:10:34;;;;;;;14.82;8.32;;;;;;;;;;5050019;28;20371;-65
2022/10/22 08:12:59;;;;;;;11.55;6.93;;;;;;;;;;5031605;28;20024;-65
2022/10/22 08:15:26;;;;;;;16.85;8.32;;;;;;;;;;5050162;28;20523;-65
2022/10/22 08:17:51;;;;;;;13.05;7.47;;;;;;;;;;5051700;28;20392;-65
2022/10/22 08:20:17;;;;;;;13.95;7.20;;;;;;;;;;5049578;28;20148;-65
2022/10/22 08:22:42;;;;;;;40.50;18.40;;;;;;;;;;5031286;28;20454;-65
2022/10/22 08:25:09;;;;;;;24.70;10.63;;;;;;;;;;5049492;28;20489;-65
2022/10/22 08:27:34;;;;;;;14.35;7.60;;;;;;;;;;5049529;28;20347;-65
2022/10/22 08:29:59;;;;;;;19.70;8.55;;;;;;;;;;5049206;28;20362;-65
2022/10/22 08:32:25;;;;;;;13.48;7.65;;;;;;;;;;5050956;28;20365;-65
2022/10/22 08:34:50;;;;;;;19.23;9.43;;;;;;;;;;5050107;28;20053;-65
2022/10/22 08:37:16;;;;;;;12.98;8.32;;;;;;;;;;5049390;28;20505;-65
2022/10/22 08:39:42;;;;;;;17.33;8.95;;;;;;;;;;5031438;28;20430;-65
2022/10/22 08:42:32;;;;;;;14.15;7.22;;;;;;;;;;5050317;28;20326;-65
2022/10/22 08:45:07;;;;;;;11.38;6.82;;;;;;;;;;5049145;28;20373;-65
2022/10/22 08:48:01;;;;;;;13.18;6.88;;;;;;;;;;5031181;28;20454;-65
2022/10/22 08:50:33;;;;;;;15.52;8.05;;;;;;;;;;5049014;28;20438;-65
2022/10/22 08:53:01;;;;;;;14.95;7.63;;;;;;;;;;5048042;28;20358;-65
2022/10/22 08:55:27;;;;;;;14.93;6.93;;;;;;;;;;5030630;28;20426;-65
2022/10/22 08:58:08;;;;;;;17.63;9.07;;;;;;;;;;5013624;28;20338;-65
2022/10/22 09:00:36;;;;;;;13.05;7.13;;;;;;;;;;5031142;28;20376;-65
2022/10/22 09:03:21;;;;;;;12.35;6.35;;;;;;;;;;5031820;28;20480;-65
2022/10/22 09:05:58;;;;;;;12.77;6.38;;;;;;;;;;5048856;28;20374;-65
2022/10/22 09:08:24;;;;;;;13.48;7.20;;;;;;;;;;5049248;28;20416;-65
2022/10/22 09:10:57;;;;;;;12.80;7.20;;;;;;;;;;5048402;28;20450;-65
2022/10/22 09:13:23;;;;;;;17.42;7.22;;;;;;;;;;5030913;28;20334;-65
2022/10/22 09:15:52;;;;;;;16.90;8.82;;;;;;;;;;5030234;28;20342;-65
2022/10/22 09:18:23;;;;;;;11.52;5.93;;;;;;;;;;5030582;28;20501;-67
2022/10/22 09:20:53;;;;;;;13.00;6.68;;;;;;;;;;5050656;28;20471;-66
2022/10/22 09:23:19;;;;;;;9.73;6.25;;;;;;;;;;5030433;28;20370;-67
2022/10/22 09:25:45;;;;;;;10.63;6.43;;;;;;;;;;5050074;28;20092;-67
2022/10/22 09:28:11;;;;;;;43.53;26.65;;;;;;;;;;5049012;28;20023;-67
2022/10/22 09:30:37;;;;;;;17.63;8.85;;;;;;;;;;5048319;28;20056;-69
2022/10/22 09:33:06;;;;;;;14.82;6.97;;;;;;;;;;5048376;28;20338;-67
2022/10/22 09:35:46;;;;;;;16.23;7.32;;;;;;;;;;5048880;28;20571;-67
2022/10/22 09:38:14;;;;;;;18.00;7.88;;;;;;;;;;5030146;28;20346;-67
2022/10/22 09:40:50;;;;;;;17.42;8.27;;;;;;;;;;5048029;28;20517;-68
2022/10/22 09:43:16;;;;;;;30.02;14.75;;;;;;;;;;5049185;28;20501;-67
2022/10/22 09:45:42;;;;;;;27.23;15.15;;;;;;;;;;5048041;28;20454;-67
2022/10/22 09:48:13;;;;;;;25.33;11.52;;;;;;;;;;5029758;28;20335;-68
2022/10/22 09:50:44;;;;;;;23.92;11.73;;;;;;;;;;5047932;28;20027;-67
2022/10/22 09:53:16;;;;;;;26.48;10.95;;;;;;;;;;5029688;28;20473;-67
2022/10/22 09:55:42;;;;;;;26.27;10.35;;;;;;;;;;5047866;28;20342;-67
2022/10/22 09:58:11;;;;;;;19.80;9.52;;;;;;;;;;5047919;28;20338;-67
2022/10/22 10:00:38;;;;;;;36.53;15.20;;;;;;;;;;5050051;28;20046;-67
2022/10/22 10:03:04;;;;;;;30.23;16.95;;;;;;;;;;5029524;28;20392;-67
2022/10/22 10:05:33;;;;;;;33.17;14.55;;;;;;;;;;5047664;28;20059;-67
2022/10/22 10:08:11;;;;;;;40.13;20.88;;;;;;;;;;5047862;28;20390;-67
2022/10/22 10:10:47;;;;;;;27.83;14.50;;;;;;;;;;5047754;28;20354;-67
2022/10/22 10:13:24;;;;;;;31.73;13.75;;;;;;;;;;5047532;28;20438;-67
2022/10/22 10:15:55;;;;;;;30.60;14.93;;;;;;;;;;5047857;28;20434;-67
2022/10/22 10:18:29;;;;;;;29.33;13.82;;;;;;;;;;5029099;28;20343;-67
2022/10/22 10:21:25;;;;;;;25.02;13.27;;;;;;;;;;5046944;28;20473;-67
2022/10/22 10:24:09;;;;;;;30.27;17.05;;;;;;;;;;5047783;28;20035;-67
2022/10/22 10:26:47;;;;;;;50.33;19.60;;;;;;;;;;5047519;28;20430;-67
2022/10/22 10:29:21;;;;;;;34.45;18.05;;;;;;;;;;5026087;28;20467;-67
2022/10/22 10:32:06;;;;;;;28.85;15.90;;;;;;;;;;5026127;28;20024;-67
2022/10/22 10:34:47;;;;;;;42.67;21.95;;;;;;;;;;5027316;28;20343;-67
2022/10/22 10:37:24;;;;;;;45.45;23.80;;;;;;;;;;5027485;28;20450;-67
2022/10/22 10:39:58;;;;;;;48.05;23.13;;;;;;;;;;5029378;28;20378;-67
2022/10/22 10:42:35;;;;;;;58.47;22.67;;;;;;;;;;5027334;28;20032;-67
2022/10/22 10:45:27;;;;;;;46.13;13.32;;;;;;;;;;5025827;28;21018;-68
2022/10/22 10:47:52;;;;;;;64.22;26.30;;;;;;;;;;5025759;28;20409;-66
2022/10/22 10:50:25;;;;;;;42.17;11.98;;;;;;;;;;5027190;28;20036;-67
2022/10/22 10:53:01;;;;;;;96.90;62.95;;;;;;;;;;5027493;28;20043;-67
2022/10/22 10:55:31;;;;;;;20.27;9.23;;;;;;;;;;5027127;28;20461;-66
2022/10/22 10:58:26;;;;;;;19.95;8.30;;;;;;;;;;5025713;28;20403;-67
2022/10/22 11:00:56;;;;;;;20.10;7.47;;;;;;;;;;5022922;28;20478;-67
2022/10/22 11:04:03;;;;;;;17.33;7.88;;;;;;;;;;5026170;28;20496;-68
2022/10/22 11:06:30;;;;;;;25.05;12.57;;;;;;;;;;4945920;28;20353;-67
2022/10/22 11:09:07;;;;;;;68.65;35.17;;;;;;;;;;5013106;28;20343;-67
2022/10/22 11:11:44;;;;;;;26.42;9.57;;;;;;;;;;5008911;28;20439;-67
2022/10/22 11:14:20;;;;;;;16.58;8.93;;;;;;;;;;5025568;28;20588;-67
2022/10/22 11:16:52;;;;;;;13.50;7.78;;;;;;;;;;5029095;28;20139;-68
2022/10/22 11:19:36;;;;;;;20.67;8.48;;;;;;;;;;5030068;28;20024;-68
2022/10/22 11:22:16;;;;;;;17.73;8.18;;;;;;;;;;5030637;28;20428;-67
2022/10/22 11:25:02;;;;;;;20.27;7.93;;;;;;;;;;5031055;28;20346;-67
2022/10/22 11:27:44;;;;;;;20.08;8.80;;;;;;;;;;5029318;28;20470;-68
2022/10/22 11:30:19;;;;;;;18.55;9.27;;;;;;;;;;5029314;28;20478;-67
2022/10/22 11:32:56;;;;;;;403.67;318.17;;;;;;;;;;5029509;28;20335;-68
2022/10/22 11:35:30;;;;;;;52.88;31.75;;;;;;;;;;5029471;28;20343;-67
2022/10/22 11:37:56;;;;;;;19.50;8.90;;;;;;;;;;5028912;28;20465;-67
2022/10/22 11:40:33;;;;;;;22.35;10.25;;;;;;;;;;5028943;28;20371;-67
2022/10/22 11:43:03;;;;;;;14.10;8.77;;;;;;;;;;5029158;28;20385;-67
2022/10/22 11:45:32;;;;;;;16.50;9.13;;;;;;;;;;5030389;28;20403;-67
2022/10/22 11:48:10;;;;;;;17.15;9.52;;;;;;;;;;5028802;28;20060;-67
2022/10/22 11:50:58;;;;;;;496.50;261.77;;;;;;;;;;5030145;28;20040;-67
2022/10/22 11:53:33;;;;;;;35.95;17.02;;;;;;;;;;5029315;28;20326;-67
2022/10/22 11:56:09;;;;;;;287.83;189.52;;;;;;;;;;5030094;28;20028;-67
2022/10/22 11:58:38;;;;;;;30.00;16.88;;;;;;;;;;5029045;28;20379;-67
2022/10/22 12:01:06;;;;;;;41.35;17.33;;;;;;;;;;5028478;28;20024;-67
2022/10/22 12:03:31;;;;;;;27.30;14.57;;;;;;;;;;5028284;28;20343;-67
2022/10/22 12:06:10;;;;;;;31.73;15.10;;;;;;;;;;5030265;28;20331;-67
2022/10/22 12:08:43;;;;;;;27.13;13.80;;;;;;;;;;5031442;28;20050;-67
2022/10/22 12:11:30;;;;;;;28.67;15.75;;;;;;;;;;5031408;28;20532;-67
2022/10/22 12:14:28;;;;;;;28.88;11.90;;;;;;;;;;5030154;28;20369;-67
2022/10/22 12:17:02;;;;;;;21.08;11.02;;;;;;;;;;5028243;28;20419;-67
2022/10/22 12:19:35;;;;;;;34.00;15.27;;;;;;;;;;5028353;28;20430;-67
2022/10/22 12:22:20;;;;;;;32.95;16.17;;;;;;;;;;5028037;28;20493;-67
2022/10/22 12:24:48;;;;;;;42.75;22.52;;;;;;;;;;5028916;28;20045;-67
2022/10/22 12:27:34;;;;;;;32.10;15.80;;;;;;;;;;5028070;28;20450;-67
2022/10/22 12:30:01;;;;;;;22.85;11.98;;;;;;;;;;5039952;28;20134;-67
2022/10/22 12:32:36;;;;;;;20.25;11.13;;;;;;;;;;5031209;28;20094;-67
2022/10/22 12:35:16;;;;;;;17.98;10.65;;;;;;;;;;5049329;28;20513;-67
2022/10/22 12:37:41;;;;;;;14.45;9.68;;;;;;;;;;5049649;28;20358;-67
2022/10/22 12:40:18;;;;;;;19.92;11.02;;;;;;;;;;5049476;28;20350;-67
2022/10/22 12:42:48;;;;;;;17.60;10.25;;;;;;;;;;5031245;28;20055;-67
2022/10/22 12:45:13;;;;;;;20.45;10.43;;;;;;;;;;5049318;28;20046;-67
2022/10/22 12:47:39;;;;;;;16.90;9.18;;;;;;;;;;5049418;28;20043;-67
2022/10/22 12:50:04;;;;;;;18.02;9.52;;;;;;;;;;5049160;28;20461;-67
2022/10/22 12:52:30;;;;;;;24.17;10.75;;;;;;;;;;5050200;28;20106;-67
2022/10/22 12:54:55;;;;;;;18.63;9.90;;;;;;;;;;5050825;28;20055;-67
2022/10/22 12:57:21;;;;;;;16.75;9.38;;;;;;;;;;5049540;28;20452;-68
2022/10/22 12:59:48;;;;;;;19.83;9.77;;;;;;;;;;5031065;28;20426;-67
2022/10/22 13:02:20;;;;;;;21.33;10.15;;;;;;;;;;5030637;28;20453;-67
2022/10/22 13:05:14;;;;;;;72.28;28.02;;;;;;;;;;5014286;28;20323;-67
2022/10/22 13:07:41;;;;;;;47.13;19.88;;;;;;;;;;5049331;28;20462;-67
2022/10/22 13:10:19;;;;;;;32.63;15.65;;;;;;;;;;5048955;28;20063;-66
2022/10/22 13:12:50;;;;;;;36.35;16.40;;;;;;;;;;5030727;28;20541;-67
2022/10/22 13:15:30;;;;;;;22.83;12.98;;;;;;;;;;5048791;28;20430;-67
2022/10/22 13:18:19;;;;;;;27.92;11.18;;;;;;;;;;5048932;28;20028;-67
2022/10/22 13:21:01;;;;;;;31.83;13.10;;;;;;;;;;5030346;28;20376;-67
2022/10/22 13:23:28;;;;;;;32.80;16.13;;;;;;;;;;5030543;28;20469;-67
2022/10/22 13:26:12;;;;;;;25.38;13.48;;;;;;;;;;5030425;28;20036;-67
2022/10/22 13:28:39;;;;;;;23.27;12.70;;;;;;;;;;5030914;28;20047;-67
2022/10/22 13:31:10;;;;;;;22.95;11.70;;;;;;;;;;5047592;28;20466;-67
2022/10/22 13:33:39;;;;;;;18.73;10.43;;;;;;;;;;5030578;28;20071;-67
2022/10/22 13:36:05;;;;;;;23.15;13.88;;;;;;;;;;5031262;28;20322;-67
2022/10/22 13:38:30;;;;;;;24.10;12.25;;;;;;;;;;5048014;28;20379;-67
2022/10/22 13:40:56;;;;;;;18.88;10.23;;;;;;;;;;5030006;28;20394;-67
2022/10/22 13:43:22;;;;;;;22.15;10.88;;;;;;;;;;5030867;28;20457;-67
2022/10/22 13:45:51;;;;;;;17.05;9.48;;;;;;;;;;5029930;28;20362;-67
2022/10/22 13:48:20;;;;;;;22.08;12.05;;;;;;;;;;5030356;28;20059;-67
2022/10/22 13:50:46;;;;;;;;;;;;;;;;;;5048535;28;20429;-67
2022/10/22 13:53:16;;;;;;;38.13;17.08;;;;;;;;;;5029813;28;20316;-67
2022/10/22 13:55:44;;;;;;;30.75;15.18;;;;;;;;;;5048487;28;20498;-67
2022/10/22 13:58:11;;;;;;;48.58;23.40;;;;;;;;;;5029804;28;20024;-67
2022/10/22 14:00:37;;;;;;;39.00;17.20;;;;;;;;;;5048282;28;20523;-67
2022/10/22 14:03:03;;;;;;;32.75;15.20;;;;;;;;;;5048080;28;20433;-67
2022/10/22 14:05:31;;;;;;;25.95;12.52;;;;;;;;;;5029748;28;20474;-67
2022/10/22 14:07:58;;;;;;;32.22;14.95;;;;;;;;;;5030780;28;20322;-67
2022/10/22 14:10:24;;;;;;;28.55;15.15;;;;;;;;;;5030194;28;20070;-67
2022/10/22 14:12:51;;;;;;;29.98;14.93;;;;;;;;;;5047902;28;20123;-67
2022/10/22 14:15:18;;;;;;;28.67;14.25;;;;;;;;;;5029510;28;20543;-67
2022/10/22 14:17:50;;;;;;;30.75;15.02;;;;;;;;;;5047651;28;20377;-67
2022/10/22 14:20:19;;;;;;;34.78;14.98;;;;;;;;;;5047861;28;20430;-67
2022/10/22 14:22:45;;;;;;;25.48;14.07;;;;;;;;;;5048182;28;20732;-67
2022/10/22 14:25:37;;;;;;;27.17;14.48;;;;;;;;;;5029680;28;20377;-67
2022/10/22 14:28:03;;;;;;;21.58;12.50;;;;;;;;;;5043425;28;20443;-67
2022/10/22 14:30:29;;;;;;;23.00;12.88;;;;;;;;;;5025798;28;20363;-67
2022/10/22 14:32:56;;;;;;;22.55;13.02;;;;;;;;;;5027487;28;20503;-67
2022/10/22 14:35:22;;;;;;;22.42;11.57;;;;;;;;;;5027775;28;20047;-67
2022/10/22 14:37:47;;;;;;;27.45;13.30;;;;;;;;;;5028396;28;20028;-67
2022/10/22 14:40:15;;;;;;;28.95;14.68;;;;;;;;;;5028344;28;20510;-67
2022/10/22 14:42:43;;;;;;;29.20;14.00;;;;;;;;;;5025985;28;20084;-67